Terminal Aerodrome Forecast
Issued by NWS

Home | Current Version | Previous Version | Text Only | Print | Product List | Glossary Off
Versions: 1 2 3 4 5 6 7 8 9 10 11 12 13 14 15 16 17 18 19 20 21 22 23 24 25 26 27

147
FTUS43 KABR 211444 AAA
TAFPIR
TAF AMD
KPIR 211444Z 2115/2212 30005KT P6SM OVC008
      TEMPO 2115/2118 OVC004
     FM211800 30008KT P6SM OVC010
     FM212200 29008KT P6SM BKN025
     FM220300 30006KT P6SM BKN120=

USA.gov is the U.S. government's official web portal to all federal, state and local government web resources and services.